sensor_id;sensor_type;location;lat;lon;timestamp;pressure;altitude;pressure_sealevel;temperature;humidity
59073;BME280;44859;51.934;15.554;2023-11-19T00:01:05;100054.79;;;1.16;100.00
59073;BME280;44859;51.934;15.554;2023-11-19T00:03:58;100051.85;;;1.15;100.00
59073;BME280;44859;51.934;15.554;2023-11-19T00:06:26;100043.88;;;1.17;100.00
59073;BME280;44859;51.934;15.554;2023-11-19T00:08:55;100038.00;;;1.18;100.00
59073;BME280;44859;51.934;15.554;2023-11-19T00:11:24;100038.16;;;1.18;100.00
59073;BME280;44859;51.934;15.554;2023-11-19T00:13:57;100030.20;;;1.18;100.00
59073;BME280;44859;51.934;15.554;2023-11-19T00:16:26;100023.96;;;1.21;100.00
59073;BME280;44859;51.934;15.554;2023-11-19T00:18:56;100012.71;;;1.21;100.00
59073;BME280;44859;51.934;15.554;2023-11-19T00:22:20;100003.92;;;1.18;100.00
59073;BME280;44859;51.934;15.554;2023-11-19T00:24:54;99999.09;;;1.16;100.00
59073;BME280;44859;51.934;15.554;2023-11-19T00:27:45;99995.64;;;1.15;100.00
59073;BME280;44859;51.934;15.554;2023-11-19T00:30:48;99999.44;;;1.15;100.00
59073;BME280;44859;51.934;15.554;2023-11-19T00:33:17;99990.09;;;1.15;100.00
59073;BME280;44859;51.934;15.554;2023-11-19T00:35:45;99976.77;;;1.15;100.00
59073;BME280;44859;51.934;15.554;2023-11-19T00:38:14;99968.30;;;1.14;100.00
59073;BME280;44859;51.934;15.554;2023-11-19T00:40:42;99960.00;;;1.14;100.00
59073;BME280;44859;51.934;15.554;2023-11-19T00:43:12;99958.25;;;1.16;100.00
59073;BME280;44859;51.934;15.554;2023-11-19T00:45:41;99947.87;;;1.16;100.00
59073;BME280;44859;51.934;15.554;2023-11-19T00:48:12;99943.21;;;1.15;100.00
59073;BME280;44859;51.934;15.554;2023-11-19T00:50:41;99945.10;;;1.17;100.00
59073;BME280;44859;51.934;15.554;2023-11-19T00:53:12;99934.20;;;1.19;100.00
59073;BME280;44859;51.934;15.554;2023-11-19T00:55:41;99925.70;;;1.19;100.00
59073;BME280;44859;51.934;15.554;2023-11-19T00:58:12;99916.73;;;1.18;100.00
59073;BME280;44859;51.934;15.554;2023-11-19T01:01:02;99908.25;;;1.17;100.00
59073;BME280;44859;51.934;15.554;2023-11-19T01:03:32;99897.86;;;1.18;100.00
59073;BME280;44859;51.934;15.554;2023-11-19T01:06:03;99889.73;;;1.18;100.00
59073;BME280;44859;51.934;15.554;2023-11-19T01:08:42;99894.23;;;1.18;100.00
59073;BME280;44859;51.934;15.554;2023-11-19T01:11:20;99893.92;;;1.16;100.00
59073;BME280;44859;51.934;15.554;2023-11-19T01:14:07;99891.99;;;1.16;100.00
59073;BME280;44859;51.934;15.554;2023-11-19T01:16:38;99894.07;;;1.16;100.00
59073;BME280;44859;51.934;15.554;2023-11-19T01:19:10;99895.30;;;1.15;100.00
59073;BME280;44859;51.934;15.554;2023-11-19T01:21:47;99894.44;;;1.14;100.00
59073;BME280;44859;51.934;15.554;2023-11-19T01:24:18;99886.65;;;1.15;100.00
59073;BME280;44859;51.934;15.554;2023-11-19T01:26:48;99880.08;;;1.15;100.00
59073;BME280;44859;51.934;15.554;2023-11-19T01:32:02;99867.96;;;1.16;100.00
59073;BME280;44859;51.934;15.554;2023-11-19T01:34:31;99864.34;;;1.13;100.00
59073;BME280;44859;51.934;15.554;2023-11-19T01:37:01;99857.61;;;1.11;100.00
59073;BME280;44859;51.934;15.554;2023-11-19T01:39:29;99856.41;;;1.11;100.00
59073;BME280;44859;51.934;15.554;2023-11-19T01:41:59;99858.15;;;1.11;100.00
59073;BME280;44859;51.934;15.554;2023-11-19T01:44:58;99843.10;;;1.11;100.00
59073;BME280;44859;51.934;15.554;2023-11-19T01:47:28;99835.31;;;1.10;100.00
59073;BME280;44859;51.934;15.554;2023-11-19T01:50:02;99832.92;;;1.07;100.00
59073;BME280;44859;51.934;15.554;2023-11-19T01:52:35;99835.16;;;1.07;100.00
59073;BME280;44859;51.934;15.554;2023-11-19T01:55:10;99827.21;;;1.08;100.00
59073;BME280;44859;51.934;15.554;2023-11-19T01:57:39;99818.21;;;1.08;100.00
59073;BME280;44859;51.934;15.554;2023-11-19T02:00:10;99813.53;;;1.09;100.00
59073;BME280;44859;51.934;15.554;2023-11-19T02:02:46;99806.27;;;1.08;100.00
59073;BME280;44859;51.934;15.554;2023-11-19T02:05:15;99797.13;;;1.07;100.00
59073;BME280;44859;51.934;15.554;2023-11-19T02:07:44;99796.25;;;1.08;100.00
59073;BME280;44859;51.934;15.554;2023-11-19T02:10:14;99793.11;;;1.09;100.00
59073;BME280;44859;51.934;15.554;2023-11-19T02:13:14;99781.54;;;1.08;100.00
59073;BME280;44859;51.934;15.554;2023-11-19T02:15:44;99779.13;;;1.06;100.00
59073;BME280;44859;51.934;15.554;2023-11-19T02:18:27;99762.71;;;1.06;100.00
59073;BME280;44859;51.934;15.554;2023-11-19T02:20:58;99751.59;;;1.11;100.00
59073;BME280;44859;51.934;15.554;2023-11-19T02:23:30;99745.52;;;1.12;100.00
59073;BME280;44859;51.934;15.554;2023-11-19T02:29:09;99720.15;;;1.08;100.00
59073;BME280;44859;51.934;15.554;2023-11-19T02:31:36;99695.06;;;1.08;100.00
59073;BME280;44859;51.934;15.554;2023-11-19T02:34:12;99696.09;;;1.09;100.00
59073;BME280;44859;51.934;15.554;2023-11-19T02:36:41;99687.28;;;1.08;100.00
59073;BME280;44859;51.934;15.554;2023-11-19T02:39:09;99685.36;;;1.09;100.00
59073;BME280;44859;51.934;15.554;2023-11-19T02:41:54;99689.15;;;1.10;100.00
59073;BME280;44859;51.934;15.554;2023-11-19T02:44:23;99691.92;;;1.11;100.00
59073;BME280;44859;51.934;15.554;2023-11-19T02:47:06;99690.92;;;1.07;100.00
59073;BME280;44859;51.934;15.554;2023-11-19T02:49:36;99691.11;;;1.06;100.00
59073;BME280;44859;51.934;15.554;2023-11-19T02:52:08;99689.76;;;1.04;100.00
59073;BME280;44859;51.934;15.554;2023-11-19T02:54:43;99687.83;;;1.05;100.00
59073;BME280;44859;51.934;15.554;2023-11-19T02:57:15;99677.08;;;1.07;100.00
59073;BME280;44859;51.934;15.554;2023-11-19T02:59:46;99664.10;;;1.08;100.00
59073;BME280;44859;51.934;15.554;2023-11-19T03:02:14;99646.99;;;1.07;100.00
59073;BME280;44859;51.934;15.554;2023-11-19T03:04:45;99644.07;;;1.06;100.00
59073;BME280;44859;51.934;15.554;2023-11-19T03:07:14;99647.03;;;1.05;100.00
59073;BME280;44859;51.934;15.554;2023-11-19T03:09:42;99651.00;;;1.05;100.00
59073;BME280;44859;51.934;15.554;2023-11-19T03:12:12;99643.91;;;1.05;100.00
59073;BME280;44859;51.934;15.554;2023-11-19T03:14:43;99630.98;;;1.03;100.00
59073;BME280;44859;51.934;15.554;2023-11-19T03:17:12;99623.36;;;1.02;100.00
59073;BME280;44859;51.934;15.554;2023-11-19T03:22:27;99595.63;;;1.06;100.00
59073;BME280;44859;51.934;15.554;2023-11-19T03:24:58;99594.75;;;1.08;100.00
59073;BME280;44859;51.934;15.554;2023-11-19T03:27:28;99588.54;;;1.06;100.00
59073;BME280;44859;51.934;15.554;2023-11-19T03:29:56;99584.95;;;1.04;100.00
59073;BME280;44859;51.934;15.554;2023-11-19T03:32:28;99579.08;;;1.04;100.00
59073;BME280;44859;51.934;15.554;2023-11-19T03:34:59;99577.52;;;1.02;100.00
59073;BME280;44859;51.934;15.554;2023-11-19T03:37:30;99567.20;;;1.01;100.00
59073;BME280;44859;51.934;15.554;2023-11-19T03:40:01;99556.61;;;1.02;100.00
59073;BME280;44859;51.934;15.554;2023-11-19T03:42:31;99557.46;;;1.03;100.00
59073;BME280;44859;51.934;15.554;2023-11-19T03:45:01;99542.42;;;1.03;100.00
59073;BME280;44859;51.934;15.554;2023-11-19T03:47:36;99523.76;;;1.02;100.00
59073;BME280;44859;51.934;15.554;2023-11-19T03:50:16;99515.95;;;1.04;100.00
59073;BME280;44859;51.934;15.554;2023-11-19T03:52:45;99519.26;;;1.02;100.00
59073;BME280;44859;51.934;15.554;2023-11-19T03:55:14;99513.58;;;1.01;100.00
59073;BME280;44859;51.934;15.554;2023-11-19T03:57:42;99517.22;;;1.00;100.00
59073;BME280;44859;51.934;15.554;2023-11-19T04:00:15;99514.10;;;0.99;100.00
59073;BME280;44859;51.934;15.554;2023-11-19T04:02:44;99530.75;;;0.97;100.00
59073;BME280;44859;51.934;15.554;2023-11-19T04:05:15;99530.55;;;0.98;100.00
59073;BME280;44859;51.934;15.554;2023-11-19T04:07:44;99519.64;;;1.00;100.00
59073;BME280;44859;51.934;15.554;2023-11-19T04:10:13;99505.98;;;0.99;100.00
59073;BME280;44859;51.934;15.554;2023-11-19T04:12:45;99508.73;;;1.01;100.00
59073;BME280;44859;51.934;15.554;2023-11-19T04:15:16;99500.40;;;1.02;100.00
59073;BME280;44859;51.934;15.554;2023-11-19T04:17:45;99497.85;;;1.00;100.00
59073;BME280;44859;51.934;15.554;2023-11-19T04:20:13;99503.97;;;0.95;100.00
59073;BME280;44859;51.934;15.554;2023-11-19T04:22:43;99510.55;;;0.94;100.00
59073;BME280;44859;51.934;15.554;2023-11-19T04:25:17;99503.08;;;0.97;100.00
59073;BME280;44859;51.934;15.554;2023-11-19T04:27:50;99493.55;;;0.98;100.00
59073;BME280;44859;51.934;15.554;2023-11-19T04:30:36;99484.27;;;0.96;100.00
59073;BME280;44859;51.934;15.554;2023-11-19T04:33:06;99474.77;;;0.93;100.00
59073;BME280;44859;51.934;15.554;2023-11-19T04:35:37;99463.76;;;0.90;100.00
59073;BME280;44859;51.934;15.554;2023-11-19T04:38:06;99468.47;;;0.86;100.00
59073;BME280;44859;51.934;15.554;2023-11-19T04:40:35;99475.21;;;0.86;100.00
59073;BME280;44859;51.934;15.554;2023-11-19T04:43:07;99474.20;;;0.85;100.00
59073;BME280;44859;51.934;15.554;2023-11-19T04:45:49;99465.38;;;0.85;100.00
59073;BME280;44859;51.934;15.554;2023-11-19T04:48:18;99462.09;;;0.86;100.00
59073;BME280;44859;51.934;15.554;2023-11-19T04:50:46;99452.91;;;0.86;100.00
59073;BME280;44859;51.934;15.554;2023-11-19T04:53:28;99448.23;;;0.87;100.00
59073;BME280;44859;51.934;15.554;2023-11-19T04:55:56;99434.73;;;0.89;100.00
59073;BME280;44859;51.934;15.554;2023-11-19T04:58:25;99423.48;;;0.90;100.00
59073;BME280;44859;51.934;15.554;2023-11-19T05:00:54;99419.50;;;0.90;100.00
59073;BME280;44859;51.934;15.554;2023-11-19T05:03:26;99414.13;;;0.91;100.00
59073;BME280;44859;51.934;15.554;2023-11-19T05:05:55;99408.95;;;0.90;100.00
59073;BME280;44859;51.934;15.554;2023-11-19T05:08:24;99406.89;;;0.88;100.00
59073;BME280;44859;51.934;15.554;2023-11-19T05:10:53;99394.96;;;0.88;100.00
59073;BME280;44859;51.934;15.554;2023-11-19T05:13:22;99388.58;;;0.88;100.00
59073;BME280;44859;51.934;15.554;2023-11-19T05:15:50;99380.64;;;0.87;100.00
59073;BME280;44859;51.934;15.554;2023-11-19T05:18:20;99381.02;;;0.85;100.00
59073;BME280;44859;51.934;15.554;2023-11-19T05:20:53;99374.78;;;0.86;100.00
59073;BME280;44859;51.934;15.554;2023-11-19T05:23:24;99373.07;;;0.85;100.00
59073;BME280;44859;51.934;15.554;2023-11-19T05:25:53;99356.27;;;0.86;100.00
59073;BME280;44859;51.934;15.554;2023-11-19T05:28:23;99341.40;;;0.87;100.00
59073;BME280;44859;51.934;15.554;2023-11-19T05:30:59;99320.68;;;0.85;100.00
59073;BME280;44859;51.934;15.554;2023-11-19T05:33:31;99308.95;;;0.84;100.00
59073;BME280;44859;51.934;15.554;2023-11-19T05:36:00;99307.73;;;0.83;100.00
59073;BME280;44859;51.934;15.554;2023-11-19T05:38:35;99308.94;;;0.84;100.00
59073;BME280;44859;51.934;15.554;2023-11-19T05:41:05;99299.92;;;0.85;100.00
59073;BME280;44859;51.934;15.554;2023-11-19T05:43:36;99288.89;;;0.84;100.00
59073;BME280;44859;51.934;15.554;2023-11-19T05:49:34;99279.34;;;0.85;100.00
59073;BME280;44859;51.934;15.554;2023-11-19T05:52:05;99282.61;;;0.87;100.00
59073;BME280;44859;51.934;15.554;2023-11-19T05:54:36;99288.32;;;0.87;100.00
59073;BME280;44859;51.934;15.554;2023-11-19T05:57:06;99280.21;;;0.86;100.00
59073;BME280;44859;51.934;15.554;2023-11-19T05:59:37;99282.10;;;0.87;100.00
59073;BME280;44859;51.934;15.554;2023-11-19T06:02:09;99280.22;;;0.86;100.00
59073;BME280;44859;51.934;15.554;2023-11-19T06:04:37;99279.54;;;0.85;100.00
59073;BME280;44859;51.934;15.554;2023-11-19T06:07:06;99279.90;;;0.84;100.00
59073;BME280;44859;51.934;15.554;2023-11-19T06:09:34;99278.50;;;0.84;100.00
59073;BME280;44859;51.934;15.554;2023-11-19T06:12:03;99278.48;;;0.86;100.00
59073;BME280;44859;51.934;15.554;2023-11-19T06:14:34;99276.55;;;0.88;100.00
59073;BME280;44859;51.934;15.554;2023-11-19T06:17:07;99274.33;;;0.86;100.00
59073;BME280;44859;51.934;15.554;2023-11-19T06:19:37;99270.77;;;0.83;100.00
59073;BME280;44859;51.934;15.554;2023-11-19T06:22:06;99263.59;;;0.78;100.00
59073;BME280;44859;51.934;15.554;2023-11-19T06:24:39;99267.64;;;0.74;100.00
59073;BME280;44859;51.934;15.554;2023-11-19T06:27:09;99260.75;;;0.72;100.00
59073;BME280;44859;51.934;15.554;2023-11-19T06:29:37;99256.45;;;0.70;100.00
59073;BME280;44859;51.934;15.554;2023-11-19T06:32:26;99251.80;;;0.68;100.00
59073;BME280;44859;51.934;15.554;2023-11-19T06:34:59;99249.95;;;0.66;100.00
59073;BME280;44859;51.934;15.554;2023-11-19T06:37:31;99239.21;;;0.67;100.00
59073;BME280;44859;51.934;15.554;2023-11-19T06:40:00;99236.81;;;0.66;100.00
59073;BME280;44859;51.934;15.554;2023-11-19T06:42:28;99232.35;;;0.64;100.00
59073;BME280;44859;51.934;15.554;2023-11-19T06:45:09;99232.02;;;0.64;100.00
59073;BME280;44859;51.934;15.554;2023-11-19T06:47:38;99222.89;;;0.62;100.00
59073;BME280;44859;51.934;15.554;2023-11-19T06:50:08;99212.89;;;0.60;100.00
59073;BME280;44859;51.934;15.554;2023-11-19T06:52:39;99204.84;;;0.57;100.00
59073;BME280;44859;51.934;15.554;2023-11-19T06:55:11;99203.15;;;0.55;100.00
59073;BME280;44859;51.934;15.554;2023-11-19T06:57:39;99194.68;;;0.54;100.00
59073;BME280;44859;51.934;15.554;2023-11-19T07:00:08;99189.83;;;0.55;100.00
59073;BME280;44859;51.934;15.554;2023-11-19T07:02:38;99187.71;;;0.57;100.00
59073;BME280;44859;51.934;15.554;2023-11-19T07:05:08;99188.42;;;0.56;100.00
59073;BME280;44859;51.934;15.554;2023-11-19T07:07:37;99188.58;;;0.58;100.00
59073;BME280;44859;51.934;15.554;2023-11-19T07:10:15;99178.58;;;0.57;100.00
59073;BME280;44859;51.934;15.554;2023-11-19T07:12:47;99175.15;;;0.55;100.00
59073;BME280;44859;51.934;15.554;2023-11-19T07:15:24;99178.25;;;0.56;100.00
59073;BME280;44859;51.934;15.554;2023-11-19T07:17:53;99180.68;;;0.54;100.00
59073;BME280;44859;51.934;15.554;2023-11-19T07:20:29;99174.77;;;0.56;100.00
59073;BME280;44859;51.934;15.554;2023-11-19T07:22:59;99162.50;;;0.57;100.00
59073;BME280;44859;51.934;15.554;2023-11-19T07:25:28;99154.70;;;0.58;100.00
59073;BME280;44859;51.934;15.554;2023-11-19T07:27:57;99151.77;;;0.58;100.00
59073;BME280;44859;51.934;15.554;2023-11-19T07:30:28;99142.73;;;0.61;100.00
59073;BME280;44859;51.934;15.554;2023-11-19T07:32:57;99140.64;;;0.62;100.00
59073;BME280;44859;51.934;15.554;2023-11-19T07:35:26;99125.19;;;0.65;100.00
59073;BME280;44859;51.934;15.554;2023-11-19T07:37:55;99116.00;;;0.67;100.00
59073;BME280;44859;51.934;15.554;2023-11-19T07:40:24;99107.00;;;0.67;100.00
59073;BME280;44859;51.934;15.554;2023-11-19T07:42:57;99103.69;;;0.69;100.00
59073;BME280;44859;51.934;15.554;2023-11-19T07:45:26;99108.65;;;0.72;100.00
59073;BME280;44859;51.934;15.554;2023-11-19T07:47:55;99105.13;;;0.76;100.00
59073;BME280;44859;51.934;15.554;2023-11-19T07:50:23;99109.94;;;0.77;100.00
59073;BME280;44859;51.934;15.554;2023-11-19T07:52:53;99111.26;;;0.80;100.00
59073;BME280;44859;51.934;15.554;2023-11-19T07:55:30;99103.24;;;0.83;100.00
59073;BME280;44859;51.934;15.554;2023-11-19T07:58:03;99104.56;;;0.86;100.00
59073;BME280;44859;51.934;15.554;2023-11-19T08:00:44;99103.82;;;0.89;100.00
59073;BME280;44859;51.934;15.554;2023-11-19T08:03:15;99098.36;;;0.93;100.00
59073;BME280;44859;51.934;15.554;2023-11-19T08:05:45;99096.58;;;0.97;100.00
59073;BME280;44859;51.934;15.554;2023-11-19T08:08:15;99090.48;;;0.98;100.00
59073;BME280;44859;51.934;15.554;2023-11-19T08:10:43;99076.25;;;1.01;100.00
59073;BME280;44859;51.934;15.554;2023-11-19T08:13:13;99068.30;;;1.01;100.00
59073;BME280;44859;51.934;15.554;2023-11-19T08:15:41;99056.16;;;1.02;100.00
59073;BME280;44859;51.934;15.554;2023-11-19T08:18:11;99048.72;;;1.03;100.00
59073;BME280;44859;51.934;15.554;2023-11-19T08:20:39;99040.89;;;1.05;100.00
59073;BME280;44859;51.934;15.554;2023-11-19T08:23:10;99040.14;;;1.07;100.00
59073;BME280;44859;51.934;15.554;2023-11-19T08:25:38;99031.13;;;1.08;100.00
59073;BME280;44859;51.934;15.554;2023-11-19T08:28:07;99021.73;;;1.11;100.00
59073;BME280;44859;51.934;15.554;2023-11-19T08:30:39;99025.67;;;1.12;100.00
59073;BME280;44859;51.934;15.554;2023-11-19T08:33:07;99027.04;;;1.14;100.00
59073;BME280;44859;51.934;15.554;2023-11-19T08:35:35;99013.54;;;1.14;100.00
59073;BME280;44859;51.934;15.554;2023-11-19T08:38:04;99008.81;;;1.16;100.00
59073;BME280;44859;51.934;15.554;2023-11-19T08:40:33;99004.11;;;1.18;100.00
59073;BME280;44859;51.934;15.554;2023-11-19T08:43:01;99001.33;;;1.19;100.00
59073;BME280;44859;51.934;15.554;2023-11-19T08:45:30;99005.80;;;1.19;100.00
59073;BME280;44859;51.934;15.554;2023-11-19T08:47:59;99002.83;;;1.21;100.00
59073;BME280;44859;51.934;15.554;2023-11-19T08:50:29;99000.00;;;1.23;100.00
59073;BME280;44859;51.934;15.554;2023-11-19T08:53:01;98997.80;;;1.29;100.00
59073;BME280;44859;51.934;15.554;2023-11-19T08:55:29;98997.05;;;1.31;100.00
59073;BME280;44859;51.934;15.554;2023-11-19T08:57:58;98995.09;;;1.34;100.00
59073;BME280;44859;51.934;15.554;2023-11-19T09:00:27;98992.61;;;1.36;100.00
59073;BME280;44859;51.934;15.554;2023-11-19T09:03:05;98993.39;;;1.39;100.00
59073;BME280;44859;51.934;15.554;2023-11-19T09:05:35;98990.38;;;1.42;100.00
59073;BME280;44859;51.934;15.554;2023-11-19T09:08:12;98984.95;;;1.46;100.00
59073;BME280;44859;51.934;15.554;2023-11-19T09:10:41;98981.61;;;1.47;100.00
59073;BME280;44859;51.934;15.554;2023-11-19T09:13:10;98979.15;;;1.50;100.00
59073;BME280;44859;51.934;15.554;2023-11-19T09:15:39;98974.98;;;1.50;100.00
59073;BME280;44859;51.934;15.554;2023-11-19T09:18:16;98976.33;;;1.51;100.00
59073;BME280;44859;51.934;15.554;2023-11-19T09:20:45;98981.67;;;1.52;100.00
59073;BME280;44859;51.934;15.554;2023-11-19T09:23:17;98977.66;;;1.54;100.00
59073;BME280;44859;51.934;15.554;2023-11-19T09:25:46;98974.86;;;1.55;100.00
59073;BME280;44859;51.934;15.554;2023-11-19T09:28:14;98974.60;;;1.58;100.00
59073;BME280;44859;51.934;15.554;2023-11-19T09:30:46;98978.31;;;1.62;100.00
59073;BME280;44859;51.934;15.554;2023-11-19T09:33:18;98973.17;;;1.67;100.00
59073;BME280;44859;51.934;15.554;2023-11-19T09:35:46;98969.27;;;1.70;100.00
59073;BME280;44859;51.934;15.554;2023-11-19T09:38:15;98968.58;;;1.70;100.00
59073;BME280;44859;51.934;15.554;2023-11-19T09:40:45;98959.72;;;1.72;100.00
59073;BME280;44859;51.934;15.554;2023-11-19T09:43:15;98958.59;;;1.75;100.00
59073;BME280;44859;51.934;15.554;2023-11-19T09:45:55;98959.20;;;1.78;100.00
59073;BME280;44859;51.934;15.554;2023-11-19T09:48:25;98954.95;;;1.81;100.00
59073;BME280;44859;51.934;15.554;2023-11-19T09:50:58;98953.66;;;1.85;100.00
59073;BME280;44859;51.934;15.554;2023-11-19T09:53:27;98943.17;;;1.89;100.00
59073;BME280;44859;51.934;15.554;2023-11-19T09:55:56;98936.15;;;1.92;100.00
59073;BME280;44859;51.934;15.554;2023-11-19T09:58:26;98934.98;;;1.97;100.00
59073;BME280;44859;51.934;15.554;2023-11-19T10:00:54;98927.04;;;2.02;100.00
59073;BME280;44859;51.934;15.554;2023-11-19T10:03:46;98927.09;;;2.06;100.00
59073;BME280;44859;51.934;15.554;2023-11-19T10:06:16;98929.79;;;2.09;100.00
59073;BME280;44859;51.934;15.554;2023-11-19T10:08:45;98920.84;;;2.13;100.00
59073;BME280;44859;51.934;15.554;2023-11-19T10:11:17;98916.71;;;2.19;100.00
59073;BME280;44859;51.934;15.554;2023-11-19T10:13:48;98907.92;;;2.23;100.00
59073;BME280;44859;51.934;15.554;2023-11-19T10:16:18;98905.73;;;2.27;100.00
59073;BME280;44859;51.934;15.554;2023-11-19T10:18:49;98906.70;;;2.29;100.00
59073;BME280;44859;51.934;15.554;2023-11-19T10:21:19;98908.18;;;2.32;100.00
59073;BME280;44859;51.934;15.554;2023-11-19T10:23:53;98890.44;;;2.34;100.00
59073;BME280;44859;51.934;15.554;2023-11-19T10:26:22;98888.41;;;2.38;100.00
59073;BME280;44859;51.934;15.554;2023-11-19T10:28:51;98879.32;;;2.41;100.00
59073;BME280;44859;51.934;15.554;2023-11-19T10:31:20;98888.24;;;2.44;100.00
59073;BME280;44859;51.934;15.554;2023-11-19T10:33:53;98887.14;;;2.46;100.00
59073;BME280;44859;51.934;15.554;2023-11-19T10:36:22;98888.65;;;2.48;100.00
59073;BME280;44859;51.934;15.554;2023-11-19T10:38:54;98883.35;;;2.51;100.00
59073;BME280;44859;51.934;15.554;2023-11-19T10:41:29;98874.95;;;2.55;100.00
59073;BME280;44859;51.934;15.554;2023-11-19T10:43:59;98871.04;;;2.57;100.00
59073;BME280;44859;51.934;15.554;2023-11-19T10:46:41;98867.33;;;2.65;100.00
59073;BME280;44859;51.934;15.554;2023-11-19T10:49:12;98867.56;;;2.74;100.00
59073;BME280;44859;51.934;15.554;2023-11-19T10:51:45;98863.83;;;2.82;100.00
59073;BME280;44859;51.934;15.554;2023-11-19T10:54:19;98860.52;;;2.88;100.00
59073;BME280;44859;51.934;15.554;2023-11-19T10:56:54;98855.35;;;2.93;100.00
59073;BME280;44859;51.934;15.554;2023-11-19T10:59:26;98852.06;;;2.98;100.00
59073;BME280;44859;51.934;15.554;2023-11-19T11:02:04;98848.45;;;3.02;100.00
59073;BME280;44859;51.934;15.554;2023-11-19T11:04:39;98851.77;;;3.07;100.00
59073;BME280;44859;51.934;15.554;2023-11-19T11:07:11;98853.66;;;3.13;100.00
59073;BME280;44859;51.934;15.554;2023-11-19T11:09:41;98857.45;;;3.18;100.00
59073;BME280;44859;51.934;15.554;2023-11-19T11:12:11;98850.88;;;3.23;100.00
59073;BME280;44859;51.934;15.554;2023-11-19T11:14:42;98846.05;;;3.28;100.00
59073;BME280;44859;51.934;15.554;2023-11-19T11:17:17;98836.60;;;3.35;100.00
59073;BME280;44859;51.934;15.554;2023-11-19T11:19:47;98845.20;;;3.42;100.00
59073;BME280;44859;51.934;15.554;2023-11-19T11:22:17;98829.76;;;3.47;100.00
59073;BME280;44859;51.934;15.554;2023-11-19T11:25:56;98828.55;;;3.52;100.00
59073;BME280;44859;51.934;15.554;2023-11-19T11:28:37;98815.69;;;3.57;100.00
59073;BME280;44859;51.934;15.554;2023-11-19T11:31:19;98820.04;;;3.62;100.00
59073;BME280;44859;51.934;15.554;2023-11-19T11:39:37;98803.18;;;3.81;100.00
59073;BME280;44859;51.934;15.554;2023-11-19T11:50:23;98810.42;;;4.16;100.00
59073;BME280;44859;51.934;15.554;2023-11-19T11:58:03;98813.41;;;4.37;100.00
59073;BME280;44859;51.934;15.554;2023-11-19T12:00:44;98810.71;;;4.44;100.00
59073;BME280;44859;51.934;15.554;2023-11-19T12:03:26;98809.89;;;4.52;100.00
59073;BME280;44859;51.934;15.554;2023-11-19T12:05:55;98808.28;;;4.57;100.00
59073;BME280;44859;51.934;15.554;2023-11-19T12:08:26;98807.74;;;4.62;100.00
59073;BME280;44859;51.934;15.554;2023-11-19T12:11:00;98803.14;;;4.68;100.00
59073;BME280;44859;51.934;15.554;2023-11-19T12:14:07;98798.27;;;4.77;100.00
59073;BME280;44859;51.934;15.554;2023-11-19T12:16:38;98792.19;;;4.89;100.00
59073;BME280;44859;51.934;15.554;2023-11-19T12:19:08;98791.91;;;5.00;100.00
59073;BME280;44859;51.934;15.554;2023-11-19T12:21:37;98794.84;;;5.10;100.00
59073;BME280;44859;51.934;15.554;2023-11-19T12:24:06;98786.56;;;5.19;100.00
59073;BME280;44859;51.934;15.554;2023-11-19T12:26:37;98783.63;;;5.31;100.00
59073;BME280;44859;51.934;15.554;2023-11-19T12:29:15;98782.95;;;5.43;100.00
59073;BME280;44859;51.934;15.554;2023-11-19T12:31:44;98780.20;;;5.50;100.00
59073;BME280;44859;51.934;15.554;2023-11-19T12:34:13;98781.99;;;5.57;100.00
59073;BME280;44859;51.934;15.554;2023-11-19T12:36:42;98776.17;;;5.63;100.00
59073;BME280;44859;51.934;15.554;2023-11-19T12:39:11;98771.43;;;5.71;100.00
59073;BME280;44859;51.934;15.554;2023-11-19T12:41:51;98768.98;;;5.79;100.00
59073;BME280;44859;51.934;15.554;2023-11-19T12:44:20;98765.83;;;5.88;100.00
59073;BME280;44859;51.934;15.554;2023-11-19T12:49:57;98769.80;;;6.08;100.00
59073;BME280;44859;51.934;15.554;2023-11-19T12:52:30;98760.77;;;6.18;100.00
59073;BME280;44859;51.934;15.554;2023-11-19T12:55:02;98760.20;;;6.31;100.00
59073;BME280;44859;51.934;15.554;2023-11-19T12:57:41;98763.58;;;6.40;100.00
59073;BME280;44859;51.934;15.554;2023-11-19T13:00:22;98759.37;;;6.47;100.00
59073;BME280;44859;51.934;15.554;2023-11-19T13:02:56;98753.94;;;6.56;100.00
59073;BME280;44859;51.934;15.554;2023-11-19T13:08:22;98751.28;;;6.71;100.00
59073;BME280;44859;51.934;15.554;2023-11-19T13:10:52;98751.70;;;6.79;100.00
59073;BME280;44859;51.934;15.554;2023-11-19T13:13:24;98744.64;;;6.85;100.00
59073;BME280;44859;51.934;15.554;2023-11-19T13:16:03;98744.07;;;6.89;100.00
59073;BME280;44859;51.934;15.554;2023-11-19T13:18:37;98738.94;;;6.94;100.00
59073;BME280;44859;51.934;15.554;2023-11-19T13:21:09;98736.86;;;7.01;100.00
59073;BME280;44859;51.934;15.554;2023-11-19T13:23:43;98734.73;;;7.05;100.00
59073;BME280;44859;51.934;15.554;2023-11-19T13:26:12;98737.05;;;7.08;100.00
59073;BME280;44859;51.934;15.554;2023-11-19T13:28:48;98735.13;;;7.11;100.00
59073;BME280;44859;51.934;15.554;2023-11-19T13:31:17;98732.09;;;7.15;100.00
59073;BME280;44859;51.934;15.554;2023-11-19T13:33:46;98733.34;;;7.18;100.00
59073;BME280;44859;51.934;15.554;2023-11-19T13:36:15;98729.30;;;7.23;100.00
59073;BME280;44859;51.934;15.554;2023-11-19T13:38:44;98728.02;;;7.27;100.00
59073;BME280;44859;51.934;15.554;2023-11-19T13:41:14;98727.67;;;7.30;100.00
59073;BME280;44859;51.934;15.554;2023-11-19T13:43:43;98726.89;;;7.35;100.00
59073;BME280;44859;51.934;15.554;2023-11-19T13:46:15;98721.02;;;7.40;100.00
59073;BME280;44859;51.934;15.554;2023-11-19T13:48:44;98719.05;;;7.48;100.00
59073;BME280;44859;51.934;15.554;2023-11-19T13:51:22;98715.52;;;7.55;100.00
59073;BME280;44859;51.934;15.554;2023-11-19T13:53:51;98718.30;;;7.69;100.00